createdAt,value
2022-10-06T09:20:44.205Z,1.83
2022-10-06T09:25:58.293Z,2.55
2022-10-06T09:28:27.632Z,2.10
2022-10-06T09:30:55.460Z,1.88
2022-10-06T09:33:25.212Z,2.00
2022-10-06T09:36:10.695Z,2.35
2022-10-06T09:38:49.350Z,2.00
2022-10-06T09:41:17.685Z,2.65
2022-10-06T09:43:53.758Z,1.70
2022-10-06T09:46:26.921Z,2.35
2022-10-06T09:49:19.227Z,2.45
2022-10-06T09:52:00.645Z,2.05
2022-10-06T09:54:28.894Z,1.42
2022-10-06T09:56:59.424Z,2.10
2022-10-06T09:59:35.060Z,1.90
2022-10-06T10:02:05.276Z,1.88
2022-10-06T10:04:36.428Z,2.17
2022-10-06T10:07:24.283Z,1.33
2022-10-06T10:09:51.408Z,1.58
2022-10-06T10:12:28.170Z,2.28
2022-10-06T10:15:02.011Z,1.88
2022-10-06T10:17:47.539Z,1.35
2022-10-06T10:20:34.293Z,2.10
2022-10-06T10:23:05.359Z,1.73
2022-10-06T10:26:00.386Z,1.65
2022-10-06T10:28:48.176Z,2.08
2022-10-06T10:31:22.797Z,1.45
2022-10-06T10:34:11.766Z,1.58
2022-10-06T10:36:51.756Z,2.00
2022-10-06T10:39:29.932Z,1.70
2022-10-06T10:41:59.096Z,1.83
2022-10-06T10:44:31.896Z,1.80
2022-10-06T10:47:11.399Z,1.80
2022-10-06T10:49:41.796Z,1.58
2022-10-06T10:52:14.218Z,1.67
2022-10-06T10:54:48.428Z,1.65
2022-10-06T10:57:17.952Z,1.40
2022-10-06T10:59:57.807Z,2.25
2022-10-06T11:02:24.954Z,1.70
2022-10-06T11:04:54.866Z,1.40
2022-10-06T11:07:29.494Z,1.77
2022-10-06T11:10:04.095Z,1.55
2022-10-06T11:12:49.962Z,2.13
2022-10-06T11:15:24.795Z,1.70
2022-10-06T11:17:56.842Z,1.08
2022-10-06T11:20:38.897Z,1.70
2022-10-06T11:23:39.043Z,1.25
2022-10-06T11:26:17.975Z,1.55
2022-10-06T11:28:49.868Z,1.70
2022-10-06T11:31:28.015Z,1.73
2022-10-06T11:33:58.408Z,1.58
2022-10-06T11:36:35.067Z,1.45
2022-10-06T11:39:11.893Z,1.60
2022-10-06T11:41:45.653Z,1.65
2022-10-06T11:46:53.170Z,1.77
2022-10-06T11:49:52.056Z,2.00
2022-10-06T11:52:45.114Z,1.30
2022-10-06T11:55:19.858Z,1.45
2022-10-06T11:58:41.387Z,1.52
2022-10-06T12:01:03.436Z,1.58
2022-10-06T12:03:46.362Z,1.30
2022-10-06T12:06:57.607Z,1.88
2022-10-06T12:09:46.255Z,1.55
2022-10-06T12:13:06.311Z,1.33
2022-10-06T12:18:41.922Z,1.17
2022-10-06T12:21:17.693Z,1.10
2022-10-06T12:24:20.217Z,1.55
2022-10-06T12:26:58.987Z,2.25
2022-10-06T12:29:41.644Z,1.45
2022-10-06T12:32:19.473Z,1.30
2022-10-06T12:34:58.622Z,1.38
2022-10-06T12:37:40.096Z,1.23
2022-10-06T12:40:46.615Z,0.95
2022-10-06T12:44:05.922Z,1.05
2022-10-06T12:46:45.144Z,0.70
2022-10-06T12:49:39.027Z,1.38
2022-10-06T12:52:17.211Z,1.17
2022-10-06T12:54:53.619Z,1.38
2022-10-06T12:57:20.823Z,1.55
2022-10-06T12:59:49.554Z,1.25
2022-10-06T13:02:20.130Z,1.17
2022-10-06T13:04:51.487Z,1.60
2022-10-06T13:07:22.442Z,1.30
2022-10-06T13:09:51.174Z,1.10
2022-10-06T13:12:26.825Z,1.45
2022-10-06T13:15:11.337Z,1.67
2022-10-06T13:17:40.927Z,2.40
2022-10-06T13:20:21.391Z,1.45
2022-10-06T13:22:57.838Z,1.27
2022-10-06T13:25:33.637Z,1.60
2022-10-06T13:28:02.378Z,1.40
2022-10-06T13:30:29.568Z,1.45
2022-10-06T13:32:58.229Z,1.83
2022-10-06T13:35:26.585Z,1.73
2022-10-06T13:37:55.011Z,1.60
2022-10-06T13:40:44.039Z,1.48
2022-10-06T13:43:17.033Z,1.60
2022-10-06T13:45:48.385Z,1.83
2022-10-06T13:48:20.781Z,1.38
2022-10-06T13:50:49.348Z,1.02
2022-10-06T13:53:29.540Z,1.10
2022-10-06T13:55:58.739Z,1.70
2022-10-06T13:58:27.920Z,1.23
2022-10-06T14:00:57.125Z,1.95
2022-10-06T14:03:28.432Z,1.45
2022-10-06T14:06:08.387Z,1.33
2022-10-06T14:08:36.207Z,1.40
2022-10-06T14:11:06.942Z,1.70
2022-10-06T14:13:41.411Z,2.20
2022-10-06T14:16:10.577Z,1.42
2022-10-06T14:18:40.085Z,1.13
2022-10-06T14:21:18.881Z,1.55
2022-10-06T14:23:49.620Z,1.65
2022-10-06T14:26:19.192Z,2.13
2022-10-06T14:28:47.678Z,1.90
2022-10-06T14:31:14.983Z,1.88
2022-10-06T14:33:42.152Z,2.13
2022-10-06T14:36:16.139Z,1.90
2022-10-06T14:38:43.031Z,1.70
2022-10-06T14:41:09.904Z,1.63
2022-10-06T14:43:40.090Z,1.40
2022-10-06T14:46:10.028Z,1.20
2022-10-06T14:48:37.108Z,1.83
2022-10-06T14:51:04.822Z,1.42
2022-10-06T14:53:32.074Z,1.50
2022-10-06T14:56:01.706Z,1.83
2022-10-06T14:58:28.469Z,1.80
2022-10-06T15:01:04.147Z,2.00
2022-10-06T15:03:31.363Z,1.33
2022-10-06T15:06:19.538Z,1.65
2022-10-06T15:08:50.997Z,1.40
2022-10-06T15:11:18.988Z,1.95
2022-10-06T15:13:46.165Z,1.73
2022-10-06T15:16:15.192Z,1.77
2022-10-06T15:18:42.914Z,1.73
2022-10-06T15:21:11.316Z,2.17
2022-10-06T15:23:39.506Z,1.80
2022-10-06T15:26:24.933Z,2.15
2022-10-06T15:29:00.725Z,2.13
2022-10-06T15:31:31.016Z,2.30
2022-10-06T15:34:00.202Z,1.77
2022-10-06T15:36:29.239Z,1.73
2022-10-06T15:38:57.905Z,1.70
2022-10-06T15:41:25.352Z,1.40
2022-10-06T15:44:00.066Z,1.63
2022-10-06T15:46:30.752Z,2.10
2022-10-06T15:49:00.936Z,1.50
2022-10-06T15:51:29.127Z,1.90
2022-10-06T15:53:57.991Z,1.80
2022-10-06T15:56:26.118Z,1.73
2022-10-06T15:58:53.432Z,2.05
2022-10-06T16:01:26.178Z,2.45
2022-10-06T16:03:54.875Z,2.05
2022-10-06T16:06:30.385Z,2.72
2022-10-06T16:08:57.152Z,1.77
2022-10-06T16:11:23.903Z,1.88
2022-10-06T16:13:52.181Z,2.20
2022-10-06T16:16:19.010Z,1.83
2022-10-06T16:18:45.851Z,2.05
2022-10-06T16:21:13.955Z,1.95
2022-10-06T16:23:40.731Z,1.63
2022-10-06T16:26:07.598Z,2.15
2022-10-06T16:28:34.488Z,2.20
2022-10-06T16:31:01.426Z,2.25
2022-10-06T16:33:28.294Z,1.50
2022-10-06T16:35:55.966Z,1.35
2022-10-06T16:38:24.849Z,2.10
2022-10-06T16:40:56.514Z,1.63
2022-10-06T16:43:23.843Z,2.05
2022-10-06T16:46:01.772Z,2.28
2022-10-06T16:48:29.654Z,2.90
2022-10-06T16:51:03.933Z,2.03
2022-10-06T16:53:36.156Z,1.98
2022-10-06T16:56:04.009Z,2.42
2022-10-06T16:58:38.411Z,2.10
2022-10-06T17:01:05.896Z,1.92
2022-10-06T17:03:32.811Z,2.30
2022-10-06T17:06:05.553Z,2.50
2022-10-06T17:08:34.410Z,1.70
2022-10-06T17:11:03.163Z,1.05
2022-10-06T17:13:30.020Z,1.70
2022-10-06T17:16:01.796Z,1.58
2022-10-06T17:18:28.779Z,1.67
2022-10-06T17:20:56.784Z,2.10
2022-10-06T17:23:23.821Z,1.52
2022-10-06T17:26:07.433Z,2.25
2022-10-06T17:28:35.014Z,2.08
2022-10-06T17:31:02.447Z,1.80
2022-10-06T17:33:34.102Z,2.22
2022-10-06T17:36:09.499Z,1.95
2022-10-06T17:38:40.353Z,1.40
2022-10-06T17:41:12.432Z,1.60
2022-10-06T17:43:40.964Z,2.05
2022-10-06T17:46:16.108Z,1.60
2022-10-06T17:48:45.009Z,2.08
2022-10-06T17:51:14.252Z,1.80
2022-10-06T17:53:44.027Z,2.67
2022-10-06T17:56:13.291Z,2.67
2022-10-06T17:58:41.946Z,2.60
2022-10-06T18:01:11.180Z,2.17
2022-10-06T18:03:41.085Z,2.13
2022-10-06T18:06:11.629Z,2.45
2022-10-06T18:08:39.073Z,2.45
2022-10-06T18:11:25.473Z,2.28
2022-10-06T18:13:54.440Z,2.42
2022-10-06T18:16:22.947Z,2.45
2022-10-06T18:18:54.675Z,2.03
2022-10-06T18:21:23.168Z,2.47
2022-10-06T18:23:50.642Z,3.28
2022-10-06T18:26:19.559Z,1.92
2022-10-06T18:28:48.119Z,2.38
2022-10-06T18:31:18.537Z,1.77
2022-10-06T18:36:34.552Z,2.05
2022-10-06T18:39:01.482Z,3.22
2022-10-06T18:41:28.713Z,2.17
2022-10-06T18:43:55.677Z,3.40
2022-10-06T18:46:43.014Z,3.45
2022-10-06T18:49:12.341Z,3.78
2022-10-06T18:51:40.715Z,4.07
2022-10-06T18:54:10.932Z,4.00
2022-10-06T18:56:38.497Z,3.83
2022-10-06T18:59:08.749Z,2.53
2022-10-06T19:01:40.933Z,3.25
2022-10-06T19:04:10.136Z,2.97
2022-10-06T19:06:38.908Z,3.80
2022-10-06T19:09:06.763Z,3.10
2022-10-06T19:11:48.509Z,3.40
2022-10-06T19:14:17.265Z,3.60
2022-10-06T19:16:45.875Z,3.05
2022-10-06T19:19:14.769Z,3.15
2022-10-06T19:21:43.201Z,2.67
2022-10-06T19:24:12.646Z,3.10
2022-10-06T19:26:45.061Z,3.30
2022-10-06T19:29:14.198Z,3.55
2022-10-06T19:31:43.463Z,2.78
2022-10-06T19:34:14.460Z,3.17
2022-10-06T19:36:41.742Z,3.88
2022-10-06T19:39:12.524Z,3.08
2022-10-06T19:41:58.807Z,3.78
2022-10-06T19:44:26.468Z,2.95
2022-10-06T19:46:55.100Z,3.60
2022-10-06T19:49:23.513Z,3.50
2022-10-06T19:51:51.050Z,3.53
2022-10-06T19:54:19.124Z,2.65
2022-10-06T19:56:46.431Z,2.75
2022-10-06T19:59:15.637Z,3.08
2022-10-06T20:01:43.054Z,2.90
2022-10-06T20:04:10.492Z,3.22
2022-10-06T20:06:41.529Z,3.15
2022-10-06T20:09:10.440Z,3.50
2022-10-06T20:11:38.570Z,3.15
2022-10-06T20:14:10.535Z,2.90
2022-10-06T20:16:42.517Z,3.35
2022-10-06T20:19:11.299Z,3.53
2022-10-06T20:21:39.943Z,3.22
2022-10-06T20:24:10.763Z,3.00
2022-10-06T20:26:40.278Z,3.22
2022-10-06T20:29:08.771Z,3.38
2022-10-06T20:31:37.486Z,3.63
2022-10-06T20:34:06.510Z,3.08
2022-10-06T20:36:34.906Z,3.38
2022-10-06T20:39:22.775Z,4.03
2022-10-06T20:41:49.960Z,3.38
2022-10-06T20:44:16.880Z,3.22
2022-10-06T20:46:43.977Z,2.90
2022-10-06T20:49:13.972Z,2.70
2022-10-06T20:51:44.733Z,2.65
2022-10-06T20:54:13.944Z,3.15
2022-10-06T20:56:40.723Z,4.45
2022-10-06T20:59:10.546Z,3.15
2022-10-06T21:01:39.776Z,2.95
2022-10-06T21:04:09.102Z,3.22
2022-10-06T21:06:40.119Z,4.05
2022-10-06T21:09:08.935Z,3.67
2022-10-06T21:11:37.067Z,3.08
2022-10-06T21:14:06.921Z,3.38
2022-10-06T21:16:35.264Z,3.90
2022-10-06T21:19:03.917Z,3.45
2022-10-06T21:21:30.724Z,3.50
2022-10-06T21:23:57.569Z,4.05
2022-10-06T21:26:28.338Z,3.70
2022-10-06T21:28:56.789Z,3.38
2022-10-06T21:31:25.186Z,3.03
2022-10-06T21:33:53.726Z,3.45
2022-10-06T21:36:22.064Z,3.80
2022-10-06T21:38:50.515Z,4.38
2022-10-06T21:41:32.032Z,3.35
2022-10-06T21:44:01.799Z,3.70
2022-10-06T21:46:30.977Z,4.57
2022-10-06T21:48:59.165Z,3.60
2022-10-06T21:51:27.597Z,3.63
2022-10-06T21:53:58.533Z,3.92
2022-10-06T21:56:26.447Z,5.00
2022-10-06T21:58:55.726Z,4.47
2022-10-06T22:01:26.346Z,4.55
2022-10-06T22:03:53.736Z,4.57
2022-10-06T22:06:21.503Z,4.75
2022-10-06T22:08:48.991Z,5.53
2022-10-06T22:11:18.287Z,5.72
2022-10-06T22:13:47.122Z,6.93
2022-10-06T22:16:16.073Z,6.90
2022-10-06T22:18:44.706Z,6.28
2022-10-06T22:21:13.553Z,5.63
2022-10-06T22:23:40.953Z,5.55
2022-10-06T22:26:09.013Z,5.10
2022-10-06T22:28:36.451Z,5.10
2022-10-06T22:31:05.001Z,5.60
2022-10-06T22:33:32.036Z,4.78
2022-10-06T22:36:00.539Z,6.38
2022-10-06T22:38:27.930Z,5.38
2022-10-06T22:40:59.525Z,5.68
2022-10-06T22:43:26.463Z,5.30
2022-10-06T22:45:53.263Z,6.25
2022-10-06T22:48:20.096Z,5.30
2022-10-06T22:50:47.181Z,6.05
2022-10-06T22:53:16.211Z,5.60
2022-10-06T22:55:42.991Z,5.88
2022-10-06T22:58:10.020Z,5.30
2022-10-06T23:00:36.991Z,5.72
2022-10-06T23:03:04.215Z,4.93
2022-10-06T23:05:31.291Z,5.68
2022-10-06T23:07:58.052Z,6.80
2022-10-06T23:10:29.564Z,5.70
2022-10-06T23:12:58.412Z,5.25
2022-10-06T23:15:25.865Z,5.47
2022-10-06T23:17:52.699Z,5.93
2022-10-06T23:20:20.882Z,5.38
2022-10-06T23:22:47.832Z,5.80
2022-10-06T23:25:14.652Z,4.80
2022-10-06T23:27:42.940Z,5.32
2022-10-06T23:30:10.751Z,5.97
2022-10-06T23:32:37.603Z,4.75
2022-10-06T23:35:05.298Z,4.60
2022-10-06T23:37:32.314Z,4.38
2022-10-06T23:39:59.105Z,5.07
2022-10-06T23:42:25.857Z,5.18
2022-10-06T23:44:54.411Z,4.90
2022-10-06T23:47:21.244Z,5.40
2022-10-06T23:49:48.074Z,4.70
2022-10-06T23:52:14.770Z,5.18
2022-10-06T23:54:41.560Z,4.40
2022-10-06T23:57:09.342Z,4.68
2022-10-06T23:59:36.283Z,4.90
